createdAt,value
2023-05-23T00:01:00.725Z,17.52
2023-05-23T00:03:27.618Z,15.50
2023-05-23T00:05:56.449Z,16.73
2023-05-23T00:08:23.045Z,19.45
2023-05-23T00:10:49.632Z,15.02
2023-05-23T00:13:16.225Z,21.08
2023-05-23T00:15:43.006Z,13.85
2023-05-23T00:18:11.176Z,15.43
2023-05-23T00:20:40.949Z,19.88
2023-05-23T00:23:08.802Z,18.88
2023-05-23T00:25:38.428Z,19.70
2023-05-23T00:28:05.476Z,15.98
2023-05-23T00:30:33.308Z,20.50
2023-05-23T00:33:03.676Z,20.60
2023-05-23T00:35:33.412Z,18.63
2023-05-23T00:38:02.222Z,19.33
2023-05-23T00:40:29.059Z,18.30
2023-05-23T00:42:56.241Z,15.10
2023-05-23T00:45:22.851Z,19.00
2023-05-23T00:47:49.842Z,18.95
2023-05-23T00:50:16.311Z,16.63
2023-05-23T00:52:44.560Z,17.40
2023-05-23T00:55:11.661Z,15.30
2023-05-23T00:57:41.710Z,16.90
2023-05-23T01:00:10.042Z,18.80
2023-05-23T01:02:41.658Z,16.02
2023-05-23T01:05:08.671Z,18.25
2023-05-23T01:07:36.044Z,20.52
2023-05-23T01:10:03.716Z,14.68
2023-05-23T01:12:50.071Z,16.83
2023-05-23T01:15:18.245Z,16.20
2023-05-23T01:17:49.332Z,16.13
2023-05-23T01:20:19.669Z,15.25
2023-05-23T01:23:03.801Z,16.08
2023-05-23T01:25:30.659Z,17.73
2023-05-23T01:28:05.838Z,16.48
2023-05-23T01:30:35.221Z,17.05
2023-05-23T01:33:02.191Z,17.58
2023-05-23T01:35:31.549Z,17.25
2023-05-23T01:37:58.347Z,16.58
2023-05-23T01:40:25.890Z,14.40
2023-05-23T01:42:53.730Z,20.48
2023-05-23T01:45:21.474Z,16.63
2023-05-23T01:47:50.287Z,14.43
2023-05-23T01:50:17.616Z,16.50
2023-05-23T01:52:44.499Z,13.98
2023-05-23T01:55:12.452Z,18.50
2023-05-23T01:57:39.402Z,14.02
2023-05-23T02:00:06.871Z,14.57
2023-05-23T02:02:40.138Z,13.70
2023-05-23T02:05:06.940Z,11.98
2023-05-23T02:07:33.521Z,15.90
2023-05-23T02:10:00.349Z,19.20
2023-05-23T02:12:28.378Z,15.85
2023-05-23T02:14:55.350Z,13.98
2023-05-23T02:17:25.011Z,13.75
2023-05-23T02:19:51.560Z,12.25
2023-05-23T02:22:18.206Z,14.88
2023-05-23T02:24:44.731Z,15.80
2023-05-23T02:27:15.505Z,15.20
2023-05-23T02:29:42.270Z,14.73
2023-05-23T02:32:08.864Z,13.35
2023-05-23T02:34:35.360Z,13.52
2023-05-23T02:37:04.706Z,13.60
2023-05-23T02:39:31.252Z,13.90
2023-05-23T02:41:57.813Z,11.93
2023-05-23T02:44:29.815Z,15.70
2023-05-23T02:46:57.088Z,14.32
2023-05-23T02:49:23.669Z,13.50
2023-05-23T02:51:51.058Z,16.77
2023-05-23T02:54:17.699Z,16.20
2023-05-23T02:56:45.386Z,16.75
2023-05-23T02:59:12.375Z,15.57
2023-05-23T03:01:39.090Z,16.85
2023-05-23T03:04:05.806Z,13.80
2023-05-23T03:06:34.240Z,17.83
2023-05-23T03:09:01.339Z,14.90
2023-05-23T03:11:29.863Z,15.40
2023-05-23T03:13:56.588Z,16.30
2023-05-23T03:16:24.283Z,17.42
2023-05-23T03:18:51.019Z,18.02
2023-05-23T03:21:17.750Z,15.48
2023-05-23T03:23:44.308Z,16.70
2023-05-23T03:26:11.844Z,14.68
2023-05-23T03:28:40.788Z,15.48
2023-05-23T03:31:07.522Z,15.05
2023-05-23T03:33:36.155Z,16.23
2023-05-23T03:36:04.263Z,24.35
2023-05-23T03:38:30.870Z,17.08
2023-05-23T03:40:57.893Z,22.73
2023-05-23T03:43:24.704Z,17.42
2023-05-23T03:45:51.296Z,15.48
2023-05-23T03:48:18.141Z,15.60
2023-05-23T03:50:44.808Z,16.33
2023-05-23T03:53:12.108Z,13.32
2023-05-23T03:55:39.446Z,13.68
2023-05-23T03:58:06.338Z,18.67
2023-05-23T04:00:33.077Z,16.20
2023-05-23T04:03:01.430Z,19.95
2023-05-23T04:05:29.048Z,15.90
2023-05-23T04:07:55.614Z,17.17
2023-05-23T04:10:22.575Z,18.10
2023-05-23T04:12:49.271Z,17.85
2023-05-23T04:15:18.043Z,19.08
2023-05-23T04:17:54.611Z,19.92
2023-05-23T04:20:21.348Z,18.20
2023-05-23T04:22:47.875Z,19.67
2023-05-23T04:25:14.428Z,17.42
2023-05-23T04:27:48.234Z,19.98
2023-05-23T04:30:16.915Z,21.10
2023-05-23T04:32:43.964Z,21.60
2023-05-23T04:35:13.540Z,19.92
2023-05-23T04:37:42.855Z,20.83
2023-05-23T04:40:09.765Z,25.77
2023-05-23T04:42:57.242Z,28.85
2023-05-23T04:45:38.397Z,16.95
2023-05-23T04:48:21.528Z,21.35
2023-05-23T04:50:48.887Z,21.85
2023-05-23T04:53:15.589Z,20.70
2023-05-23T04:55:42.519Z,21.50
2023-05-23T04:58:13.788Z,18.00
2023-05-23T05:00:41.811Z,18.75
2023-05-23T05:03:10.077Z,20.67
2023-05-23T05:05:41.176Z,20.73
2023-05-23T05:08:07.800Z,17.77
2023-05-23T05:10:35.095Z,21.77
2023-05-23T05:13:02.479Z,17.17
2023-05-23T05:15:35.738Z,19.38
2023-05-23T05:18:02.558Z,18.52
2023-05-23T05:20:29.902Z,16.55
2023-05-23T05:23:00.246Z,23.05
2023-05-23T05:25:31.961Z,22.38
2023-05-23T05:28:02.141Z,19.98
2023-05-23T05:30:30.726Z,22.35
2023-05-23T05:33:02.137Z,21.02
2023-05-23T05:35:29.597Z,23.17
2023-05-23T05:37:56.166Z,21.75
2023-05-23T05:40:23.400Z,19.05
2023-05-23T05:42:50.792Z,18.13
2023-05-23T05:45:18.134Z,22.00
2023-05-23T05:47:46.854Z,15.45
2023-05-23T05:50:13.643Z,17.88
2023-05-23T05:52:41.359Z,16.83
2023-05-23T05:55:11.484Z,20.10
2023-05-23T05:57:39.956Z,20.33
2023-05-23T06:00:13.597Z,17.98
2023-05-23T06:02:45.194Z,20.33
2023-05-23T06:05:16.310Z,19.80
2023-05-23T06:07:43.542Z,17.00
2023-05-23T06:10:13.148Z,20.50
2023-05-23T06:12:39.848Z,18.35
2023-05-23T06:15:06.999Z,17.10
2023-05-23T06:17:33.636Z,18.00
2023-05-23T06:20:00.241Z,17.75
2023-05-23T06:22:27.191Z,18.10
2023-05-23T06:24:53.877Z,19.73
2023-05-23T06:27:20.402Z,16.88
2023-05-23T06:29:47.010Z,19.25
2023-05-23T06:32:13.495Z,21.08
2023-05-23T06:34:42.869Z,15.65
2023-05-23T06:37:09.431Z,17.15
2023-05-23T06:39:35.954Z,22.95
2023-05-23T06:42:02.598Z,20.35
2023-05-23T06:44:39.320Z,19.30
2023-05-23T06:47:06.237Z,19.70
2023-05-23T06:49:32.777Z,23.08
2023-05-23T06:51:59.290Z,19.77
2023-05-23T06:54:26.402Z,18.17
2023-05-23T06:56:53.010Z,26.05
2023-05-23T06:59:20.404Z,26.67
2023-05-23T07:01:47.034Z,25.73
2023-05-23T07:04:14.534Z,25.63
2023-05-23T07:06:41.258Z,26.23
2023-05-23T07:09:07.989Z,31.88
2023-05-23T07:11:35.639Z,27.42
2023-05-23T07:14:02.178Z,27.23
2023-05-23T07:16:41.510Z,27.13
2023-05-23T07:19:08.507Z,27.13
2023-05-23T07:21:42.045Z,27.45
2023-05-23T07:24:09.441Z,31.95
2023-05-23T07:26:37.446Z,34.83
2023-05-23T07:29:05.891Z,33.90
2023-05-23T07:31:32.728Z,31.38
2023-05-23T07:34:01.198Z,31.98
2023-05-23T07:36:35.791Z,31.38
2023-05-23T07:39:03.899Z,44.15
2023-05-23T07:41:30.542Z,36.67
2023-05-23T07:43:58.593Z,37.50
2023-05-23T07:46:25.168Z,35.35
2023-05-23T07:48:51.905Z,33.45
2023-05-23T07:51:21.279Z,30.38
2023-05-23T07:53:49.318Z,27.58
2023-05-23T07:56:17.067Z,29.73
2023-05-23T07:58:43.613Z,27.55
2023-05-23T08:01:10.503Z,28.83
2023-05-23T08:04:00.200Z,30.25
2023-05-23T08:06:36.556Z,28.52
2023-05-23T08:09:06.987Z,30.13
2023-05-23T08:11:38.184Z,30.33
2023-05-23T08:14:06.065Z,31.33
2023-05-23T08:16:47.773Z,30.27
2023-05-23T08:19:23.160Z,30.08
2023-05-23T08:21:51.152Z,40.10
2023-05-23T08:24:17.659Z,33.80
2023-05-23T08:26:44.759Z,30.85
2023-05-23T08:29:13.720Z,33.20
2023-05-23T08:31:41.751Z,34.83
2023-05-23T08:34:09.416Z,42.55
2023-05-23T08:36:39.792Z,41.30
2023-05-23T08:39:08.412Z,38.35
2023-05-23T08:41:40.514Z,39.17
2023-05-23T08:44:10.793Z,41.28
2023-05-23T08:46:46.458Z,44.58
2023-05-23T08:49:22.633Z,43.78
2023-05-23T08:51:52.064Z,38.03
2023-05-23T08:54:22.211Z,38.33
2023-05-23T08:56:48.902Z,36.17
2023-05-23T08:59:16.117Z,34.22
2023-05-23T09:01:43.798Z,31.75
2023-05-23T09:04:12.395Z,33.05
2023-05-23T09:07:05.534Z,30.90
2023-05-23T09:09:34.228Z,27.83
2023-05-23T09:12:03.411Z,30.13
2023-05-23T09:14:31.721Z,27.15
2023-05-23T09:17:04.609Z,27.60
2023-05-23T09:19:32.301Z,29.30
2023-05-23T09:22:14.914Z,22.75
2023-05-23T09:24:58.829Z,21.80
2023-05-23T09:27:27.109Z,21.90
2023-05-23T09:29:53.948Z,20.33
2023-05-23T09:32:21.432Z,22.23
2023-05-23T09:35:02.543Z,19.42
2023-05-23T09:37:30.039Z,21.15
2023-05-23T09:39:57.188Z,19.73
2023-05-23T09:42:24.115Z,19.45
2023-05-23T09:44:51.082Z,19.77
2023-05-23T09:47:17.798Z,19.60
2023-05-23T09:49:44.911Z,22.73
2023-05-23T09:52:12.507Z,20.00
2023-05-23T09:54:39.350Z,18.08
2023-05-23T09:57:10.205Z,18.42
2023-05-23T09:59:41.318Z,24.67
2023-05-23T10:02:11.168Z,19.30
2023-05-23T10:04:39.679Z,23.80
2023-05-23T10:07:17.503Z,20.67
2023-05-23T10:09:47.475Z,17.83
2023-05-23T10:12:19.968Z,16.83
2023-05-23T10:14:52.072Z,19.00
2023-05-23T10:17:20.177Z,20.10
2023-05-23T10:19:52.237Z,16.27
2023-05-23T10:22:21.248Z,16.40
2023-05-23T10:24:48.439Z,15.30
2023-05-23T10:27:15.310Z,13.80
2023-05-23T10:29:42.397Z,11.32
2023-05-23T10:32:09.910Z,11.88
2023-05-23T10:34:57.968Z,14.13
2023-05-23T10:37:29.674Z,11.55
2023-05-23T10:39:59.165Z,12.88
2023-05-23T10:42:35.372Z,9.75
2023-05-23T10:45:17.103Z,9.32
2023-05-23T10:47:43.711Z,9.30
2023-05-23T10:50:14.887Z,6.75
2023-05-23T10:52:41.935Z,9.93
2023-05-23T10:55:17.923Z,8.90
2023-05-23T10:57:49.912Z,7.15
2023-05-23T11:00:18.099Z,6.97
2023-05-23T11:02:57.364Z,6.88
2023-05-23T11:05:25.162Z,5.95
2023-05-23T11:08:18.041Z,5.82
2023-05-23T11:10:55.337Z,10.18
2023-05-23T11:13:22.592Z,6.10
2023-05-23T11:15:49.226Z,6.68
2023-05-23T11:18:27.168Z,7.70
2023-05-23T11:20:54.521Z,7.43
2023-05-23T11:23:21.989Z,6.57
2023-05-23T11:25:49.621Z,8.00
2023-05-23T11:28:17.318Z,6.75
2023-05-23T11:30:44.422Z,8.60
2023-05-23T11:33:14.674Z,6.85
2023-05-23T11:35:41.927Z,6.65
2023-05-23T11:38:09.210Z,6.95
2023-05-23T11:40:36.005Z,8.82
2023-05-23T11:43:04.443Z,9.35
2023-05-23T11:45:34.244Z,7.65
2023-05-23T11:48:11.682Z,7.53
2023-05-23T11:50:51.430Z,6.25
2023-05-23T11:53:21.105Z,13.07
2023-05-23T11:55:53.040Z,6.32
2023-05-23T11:58:20.991Z,7.00
2023-05-23T12:00:47.613Z,5.18
2023-05-23T12:03:14.316Z,7.00
2023-05-23T12:05:43.071Z,5.20
2023-05-23T12:08:15.821Z,7.30
2023-05-23T12:10:52.659Z,8.05
2023-05-23T12:13:20.053Z,7.78
2023-05-23T12:15:47.727Z,8.60
2023-05-23T12:18:16.387Z,6.75
2023-05-23T12:20:43.179Z,12.73
2023-05-23T12:23:17.743Z,8.57
2023-05-23T12:25:44.456Z,7.28
2023-05-23T12:28:13.752Z,7.13
2023-05-23T12:30:43.658Z,6.40
2023-05-23T12:33:10.589Z,5.38
2023-05-23T12:35:37.134Z,4.88
2023-05-23T12:38:07.134Z,6.82
2023-05-23T12:40:33.673Z,3.90
2023-05-23T12:43:00.339Z,4.75
2023-05-23T12:45:34.126Z,7.57
2023-05-23T12:48:02.133Z,5.28
2023-05-23T12:50:29.096Z,5.13
2023-05-23T12:52:56.106Z,6.55
2023-05-23T12:55:22.801Z,5.65
2023-05-23T12:57:49.467Z,9.35
2023-05-23T13:00:19.685Z,8.88
2023-05-23T13:02:46.576Z,7.88
2023-05-23T13:05:13.151Z,5.78
2023-05-23T13:07:39.758Z,7.68
2023-05-23T13:10:06.629Z,6.50
2023-05-23T13:12:34.338Z,8.40
2023-05-23T13:15:01.108Z,4.90
2023-05-23T13:17:28.004Z,8.38
2023-05-23T13:19:54.626Z,5.70
2023-05-23T13:22:21.218Z,7.43
2023-05-23T13:24:49.980Z,5.63
2023-05-23T13:27:16.575Z,8.90
2023-05-23T13:29:43.150Z,4.70
2023-05-23T13:32:09.959Z,8.45
2023-05-23T13:34:37.499Z,5.45
2023-05-23T13:37:04.852Z,9.57
2023-05-23T13:39:31.462Z,5.80
2023-05-23T13:41:58.005Z,9.77
2023-05-23T13:44:24.629Z,6.55
2023-05-23T13:46:51.359Z,7.85
2023-05-23T13:49:17.987Z,12.82
2023-05-23T13:51:44.640Z,6.38
2023-05-23T13:54:11.728Z,10.43
2023-05-23T13:56:39.798Z,5.35
2023-05-23T13:59:06.512Z,3.97
2023-05-23T14:01:33.284Z,4.57
2023-05-23T14:03:59.881Z,4.47
2023-05-23T14:06:26.413Z,4.05
2023-05-23T14:08:52.923Z,6.40
2023-05-23T14:11:19.712Z,4.65
2023-05-23T14:13:46.279Z,4.95
2023-05-23T14:16:12.924Z,6.50
2023-05-23T14:18:39.645Z,5.32
2023-05-23T14:21:06.193Z,5.25
2023-05-23T14:23:32.720Z,5.00
2023-05-23T14:25:59.350Z,6.13
2023-05-23T14:28:26.062Z,7.90
2023-05-23T14:30:52.651Z,10.90
2023-05-23T14:33:19.678Z,12.65
2023-05-23T14:35:46.968Z,17.33
2023-05-23T14:38:13.402Z,19.58
2023-05-23T14:40:40.082Z,12.88
2023-05-23T14:43:09.081Z,12.55
2023-05-23T14:45:36.088Z,14.70
2023-05-23T14:48:03.069Z,13.65
2023-05-23T14:50:31.122Z,15.85
2023-05-23T14:52:58.032Z,17.05
2023-05-23T14:55:24.679Z,17.20
2023-05-23T14:57:51.254Z,15.98
2023-05-23T15:00:18.426Z,16.25
2023-05-23T15:02:45.373Z,17.52
2023-05-23T15:05:12.586Z,11.63
2023-05-23T15:07:39.426Z,12.30
2023-05-23T15:10:06.711Z,13.15
2023-05-23T15:12:33.394Z,11.57
2023-05-23T15:15:03.804Z,10.63
2023-05-23T15:17:33.604Z,11.63
2023-05-23T15:20:00.856Z,8.57
2023-05-23T15:22:36.461Z,10.02
2023-05-23T15:25:05.513Z,12.30
2023-05-23T15:27:31.981Z,10.85
2023-05-23T15:29:59.077Z,13.68
2023-05-23T15:32:25.841Z,10.45
2023-05-23T15:34:52.925Z,11.25
2023-05-23T15:37:20.091Z,13.82
2023-05-23T15:39:47.129Z,15.65
2023-05-23T15:42:13.970Z,12.35
2023-05-23T15:44:40.749Z,13.98
2023-05-23T15:47:07.362Z,15.55
2023-05-23T15:49:34.978Z,11.55
2023-05-23T15:52:01.462Z,12.88
2023-05-23T15:54:28.003Z,12.82
2023-05-23T15:56:54.816Z,15.57
2023-05-23T15:59:21.354Z,15.00
2023-05-23T16:01:47.925Z,13.77
2023-05-23T16:04:14.688Z,11.80
2023-05-23T16:06:41.257Z,14.13
2023-05-23T16:09:07.808Z,15.25
2023-05-23T16:11:34.414Z,13.00
2023-05-23T16:14:01.041Z,12.07
2023-05-23T16:16:27.714Z,16.00
2023-05-23T16:18:54.431Z,19.27
2023-05-23T16:21:21.127Z,13.45
2023-05-23T16:23:48.479Z,17.27
2023-05-23T16:26:16.007Z,19.30
2023-05-23T16:28:43.552Z,20.73
2023-05-23T16:31:14.025Z,20.90
2023-05-23T16:33:41.012Z,18.35
2023-05-23T16:36:07.632Z,18.23
2023-05-23T16:38:34.244Z,25.05
2023-05-23T16:41:00.869Z,24.90
2023-05-23T16:43:27.589Z,28.17
2023-05-23T16:45:54.295Z,34.90
2023-05-23T16:48:21.657Z,37.00
2023-05-23T16:50:48.174Z,40.83
2023-05-23T16:53:14.687Z,39.10
2023-05-23T16:55:41.468Z,33.47
2023-05-23T16:58:08.168Z,30.48
2023-05-23T17:00:34.619Z,32.17
2023-05-23T17:03:01.939Z,31.60
2023-05-23T17:05:28.504Z,30.92
2023-05-23T17:07:57.329Z,30.30
2023-05-23T17:10:23.968Z,30.80
2023-05-23T17:12:50.981Z,32.55
2023-05-23T17:15:18.888Z,25.10
2023-05-23T17:17:46.791Z,29.30
2023-05-23T17:20:13.378Z,33.10
2023-05-23T17:22:39.959Z,39.35
2023-05-23T17:25:06.618Z,30.38
2023-05-23T17:27:33.259Z,32.72
2023-05-23T17:30:05.125Z,32.80
2023-05-23T17:32:32.080Z,33.60
2023-05-23T17:34:58.674Z,31.52
2023-05-23T17:37:26.396Z,30.40
2023-05-23T17:39:54.614Z,33.55
2023-05-23T17:42:23.147Z,33.97
2023-05-23T17:44:49.707Z,37.22
2023-05-23T17:47:18.141Z,40.05
2023-05-23T17:49:44.885Z,41.10
2023-05-23T17:52:14.752Z,45.88
2023-05-23T17:54:43.967Z,41.95
2023-05-23T17:57:11.142Z,58.85
2023-05-23T17:59:37.597Z,45.30
2023-05-23T18:02:05.709Z,48.97
2023-05-23T18:04:32.350Z,52.03
2023-05-23T18:06:59.002Z,50.22
2023-05-23T18:09:25.572Z,57.33
2023-05-23T18:11:51.994Z,59.70
2023-05-23T18:14:18.518Z,50.10
2023-05-23T18:16:45.251Z,55.08
2023-05-23T18:19:12.135Z,58.15
2023-05-23T18:21:39.714Z,57.85
2023-05-23T18:24:07.440Z,57.13
2023-05-23T18:26:34.060Z,55.95
2023-05-23T18:29:02.091Z,56.83
2023-05-23T18:31:29.750Z,61.67
2023-05-23T18:33:56.233Z,58.25
2023-05-23T18:36:22.956Z,64.82
2023-05-23T18:38:49.531Z,67.05
2023-05-23T18:41:16.056Z,58.95
2023-05-23T18:43:42.606Z,56.38
2023-05-23T18:46:09.411Z,62.60
2023-05-23T18:48:36.188Z,48.90
2023-05-23T18:51:03.199Z,62.40
2023-05-23T18:53:29.805Z,52.58
2023-05-23T18:55:56.286Z,45.78
2023-05-23T18:58:22.812Z,55.05
2023-05-23T19:00:49.354Z,53.85
2023-05-23T19:03:16.753Z,55.40
2023-05-23T19:05:43.340Z,46.50
2023-05-23T19:08:09.886Z,44.15
2023-05-23T19:10:36.580Z,46.53
2023-05-23T19:13:03.832Z,52.20
2023-05-23T19:15:30.467Z,55.50
2023-05-23T19:17:57.162Z,47.22
2023-05-23T19:20:24.083Z,49.42
2023-05-23T19:22:52.349Z,42.72
2023-05-23T19:25:19.713Z,46.42
2023-05-23T19:27:46.309Z,41.08
2023-05-23T19:30:15.300Z,48.97
2023-05-23T19:32:41.918Z,49.83
2023-05-23T19:35:08.981Z,47.20
2023-05-23T19:37:35.596Z,57.13
2023-05-23T19:40:02.163Z,39.95
2023-05-23T19:42:28.714Z,48.80
2023-05-23T19:44:55.386Z,47.35
2023-05-23T19:47:22.052Z,66.03
2023-05-23T19:49:48.693Z,42.40
2023-05-23T19:52:15.272Z,57.25
2023-05-23T19:54:41.966Z,45.00
2023-05-23T19:57:08.806Z,49.05
2023-05-23T19:59:35.582Z,52.42
2023-05-23T20:02:02.735Z,48.58
2023-05-23T20:04:29.781Z,44.55
2023-05-23T20:06:57.392Z,36.05
2023-05-23T20:09:23.885Z,43.20
2023-05-23T20:11:50.594Z,45.97
2023-05-23T20:14:17.183Z,42.47
2023-05-23T20:16:43.734Z,45.53
2023-05-23T20:19:10.684Z,42.70
2023-05-23T20:21:37.159Z,44.58
2023-05-23T20:24:03.759Z,47.92
2023-05-23T20:26:30.385Z,37.20
2023-05-23T20:28:56.977Z,39.28
2023-05-23T20:31:23.844Z,47.35
2023-05-23T20:33:50.330Z,47.58
2023-05-23T20:36:19.874Z,42.30
2023-05-23T20:38:47.662Z,38.78
2023-05-23T20:41:14.258Z,37.20
2023-05-23T20:43:40.990Z,31.10
2023-05-23T20:46:09.187Z,33.13
2023-05-23T20:48:35.973Z,38.03
2023-05-23T20:51:05.580Z,38.00
2023-05-23T20:53:32.042Z,33.22
2023-05-23T20:55:58.750Z,26.38
2023-05-23T20:58:25.473Z,33.50
2023-05-23T21:00:52.128Z,34.83
2023-05-23T21:03:18.827Z,27.52
2023-05-23T21:05:45.555Z,32.35
2023-05-23T21:08:12.401Z,27.23
2023-05-23T21:10:39.183Z,27.55
2023-05-23T21:13:05.842Z,32.13
2023-05-23T21:15:32.455Z,39.22
2023-05-23T21:17:59.062Z,28.95
2023-05-23T21:20:25.729Z,29.00
2023-05-23T21:22:52.497Z,29.13
2023-05-23T21:25:18.950Z,32.13
2023-05-23T21:27:45.747Z,30.55
2023-05-23T21:30:12.702Z,31.15
2023-05-23T21:32:39.328Z,25.15
2023-05-23T21:35:06.423Z,30.23
2023-05-23T21:37:32.913Z,27.83
2023-05-23T21:39:59.519Z,22.45
2023-05-23T21:42:26.244Z,27.23
2023-05-23T21:44:52.829Z,28.80
2023-05-23T21:47:21.228Z,35.08
2023-05-23T21:49:48.124Z,29.58
2023-05-23T21:52:14.795Z,30.17
2023-05-23T21:54:41.286Z,19.23
2023-05-23T21:57:07.858Z,20.75
2023-05-23T21:59:34.674Z,27.85
2023-05-23T22:02:01.396Z,23.65
2023-05-23T22:04:28.099Z,30.38
2023-05-23T22:06:54.900Z,24.13
2023-05-23T22:09:21.456Z,36.13
2023-05-23T22:11:48.124Z,24.17
2023-05-23T22:14:14.576Z,20.02
2023-05-23T22:16:41.334Z,29.85
2023-05-23T22:19:09.733Z,19.95
2023-05-23T22:21:39.678Z,27.60
2023-05-23T22:24:06.408Z,25.92
2023-05-23T22:26:32.998Z,17.45
2023-05-23T22:29:00.025Z,32.13
2023-05-23T22:31:28.815Z,34.75
2023-05-23T22:33:55.650Z,28.05
2023-05-23T22:36:22.272Z,25.00
2023-05-23T22:38:48.932Z,27.13
2023-05-23T22:41:15.576Z,31.20
2023-05-23T22:43:42.235Z,27.58
2023-05-23T22:46:08.904Z,26.23
2023-05-23T22:48:35.506Z,26.25
2023-05-23T22:51:02.488Z,22.10
2023-05-23T22:53:29.906Z,23.13
2023-05-23T22:55:56.585Z,27.60
2023-05-23T22:58:23.345Z,22.45
2023-05-23T23:00:50.062Z,23.15
2023-05-23T23:03:16.742Z,23.65
2023-05-23T23:05:44.237Z,21.13
2023-05-23T23:08:13.511Z,24.35
2023-05-23T23:10:41.618Z,25.00
2023-05-23T23:13:08.458Z,23.02
2023-05-23T23:15:36.839Z,23.02
2023-05-23T23:18:05.387Z,21.15
2023-05-23T23:20:32.199Z,23.52
2023-05-23T23:22:58.836Z,25.23
2023-05-23T23:25:26.299Z,24.45
2023-05-23T23:27:52.881Z,27.83
2023-05-23T23:30:19.574Z,21.00
2023-05-23T23:32:46.421Z,28.23
2023-05-23T23:35:12.941Z,25.05
2023-05-23T23:37:39.443Z,23.52
2023-05-23T23:40:06.683Z,19.27
2023-05-23T23:42:33.350Z,33.95
2023-05-23T23:45:01.014Z,24.77
2023-05-23T23:47:27.691Z,30.67
2023-05-23T23:49:54.328Z,22.60
2023-05-23T23:52:21.282Z,16.23
2023-05-23T23:54:47.894Z,22.80
2023-05-23T23:57:14.485Z,26.83
2023-05-23T23:59:41.541Z,22.63
